Погода Ходечна 2 недели

Куявско-Поморское воеводство, Польша

18 - 31 июля
  • 18июля
    Сегодня
    +14°
    +26°
    Небольшая облачность
    ВремяПогодаТемператураВлажностьДавлениеВетер, м/сВероятность осадков
    02:00Облачно с прояснениями+17°C87 %761 мм1.7 м/с2 %
    05:00Ясно и безоблачно+15°C92 %761 мм1.7 м/с2 %
    08:00Ясно и безоблачно+20°C73 %762 мм2.8 м/с2 %
    11:00Практически безоблачно+23°C56 %762 мм4.1 м/с2 %
    14:00Небольшая облачность+24°C50 %762 мм4.8 м/с3 %
    17:00Практически безоблачно+25°C51 %762 мм3.6 м/с2 %
    20:00Облачно с прояснениями+23°C61 %762 мм1.5 м/с2 %
    23:00Облачно с прояснениями+18°C79 %763 мм1.8 м/с2 %
  • 19июля
    Пятница
    +16°
    +27°
    Небольшая облачность
    ВремяПогодаТемператураВлажностьДавлениеВетер, м/сВероятность осадков
    02:00Небольшая облачность+16°C90 %763 мм2.2 м/с2 %
    05:00Ясно и безоблачно+15°C94 %763 мм2.0 м/с2 %
    08:00Ясно и безоблачно+20°C72 %763 мм0.7 м/с2 %
    11:00Небольшая облачность+23°C55 %762 мм2.5 м/с2 %
    14:00Небольшая облачность+25°C47 %761 мм3.0 м/с2 %
    17:00Небольшая облачность+26°C43 %760 мм3.2 м/с2 %
    20:00Практически безоблачно+24°C61 %760 мм1.4 м/с2 %
    23:00Ясно и безоблачно+18°C72 %759 мм2.7 м/с2 %
  • 20июля
    Суббота
    +15°
    +28°
    Облачно с прояснениями
    ВремяПогодаТемператураВлажностьДавлениеВетер, м/сВероятность осадков
    02:00Ясно и безоблачно+16°C84 %759 мм2.0 м/с2 %
    05:00Практически безоблачно+16°C87 %759 мм1.3 м/с2 %
    08:00Облачно с прояснениями+20°C75 %758 мм0.4 м/с2 %
    11:00Облачно с прояснениями+24°C51 %758 мм1.2 м/с2 %
    14:00Облачно с прояснениями+26°C45 %757 мм1.9 м/с2 %
    17:00Небольшая облачность+27°C41 %756 мм2.1 м/с2 %
    20:00Практически безоблачно+25°C57 %755 мм1.3 м/с2 %
    23:00Ясно и безоблачно+19°C72 %755 мм2.5 м/с2 %
  • 21июля
    Воскресенье
    +17°
    +31°
    Ясно и безоблачно
    ВремяПогодаТемператураВлажностьДавлениеВетер, м/сВероятность осадков
    02:00Ясно и безоблачно+17°C83 %755 мм2.2 м/с2 %
    05:00Ясно и безоблачно+15°C89 %754 мм2.3 м/с2 %
    08:00Ясно и безоблачно+21°C70 %754 мм1.5 м/с2 %
    11:00Ясно и безоблачно+26°C43 %754 мм0.8 м/с2 %
    14:00Ясно и безоблачно+28°C40 %753 мм0.5 м/с2 %
    17:00Практически безоблачно+31°C36 %752 мм1.1 м/с2 %
    20:00Ясно и безоблачно+26°C49 %752 мм3.2 м/с2 %
    23:00Ясно и безоблачно+21°C56 %752 мм2.7 м/с2 %
  • 22июля
    Понедельник
    +16°
    +28°
    Ясно и безоблачно
    ВремяПогодаТемператураВлажностьДавлениеВетер, м/сВероятность осадков
    02:00Ясно и безоблачно+19°C66 %753 мм2.5 м/с4 %
    05:00Ясно и безоблачно+18°C78 %752 мм2.0 м/с5 %
    08:00Ясно и безоблачно+21°C64 %753 мм1.6 м/с17 %
    11:00Ясно и безоблачно+24°C46 %753 мм0.7 м/с30 %
    14:00Ясно и безоблачно+27°C35 %753 мм0.4 м/с50 %
    17:00Небольшая облачность и лёгкий дождик+27°C34 %752 мм1.5 м/с55 %
    20:00Облачно с прояснениями+24°C53 %753 мм1.9 м/с47 %
    23:00Облачно с прояснениями+20°C75 %754 мм2.7 м/с27 %
Мы используем cookies
Соглашаюсь